createdAt,value
2023-04-01T00:01:37.733Z,0
2023-04-01T00:03:17.350Z,0
2023-04-01T00:04:57.317Z,0
2023-04-01T00:06:37.008Z,0
2023-04-01T00:08:16.780Z,0
2023-04-01T00:09:56.546Z,0
2023-04-01T00:11:36.195Z,0
2023-04-01T00:13:16.079Z,0
2023-04-01T00:14:55.718Z,0
2023-04-01T00:16:35.496Z,0
2023-04-01T00:18:15.274Z,0
2023-04-01T00:19:55.144Z,0
2023-04-01T00:21:34.798Z,0
2023-04-01T00:23:14.842Z,0
2023-04-01T00:24:54.457Z,0
2023-04-01T00:26:34.094Z,0
2023-04-01T00:28:14.004Z,0
2023-04-01T00:29:53.797Z,0
2023-04-01T00:31:33.545Z,0
2023-04-01T00:33:13.325Z,0
2023-04-01T00:34:52.981Z,0
2023-04-01T00:36:32.910Z,0
2023-04-01T00:38:12.627Z,0
2023-04-01T00:39:52.358Z,0
2023-04-01T00:41:32.116Z,0
2023-04-01T00:43:11.925Z,0
2023-04-01T00:44:51.721Z,0
2023-04-01T00:46:31.428Z,0
2023-04-01T00:48:11.188Z,0
2023-04-01T00:49:50.927Z,0
2023-04-01T00:51:30.777Z,0
2023-04-01T00:53:10.416Z,0
2023-04-01T00:54:50.307Z,0
2023-04-01T00:56:29.999Z,0
2023-04-01T00:58:09.862Z,0
2023-04-01T00:59:49.618Z,0
2023-04-01T01:01:29.401Z,0
2023-04-01T01:03:09.151Z,0
2023-04-01T01:04:48.917Z,0
2023-04-01T01:06:28.706Z,0
2023-04-01T01:08:08.479Z,0
2023-04-01T01:09:48.184Z,0
2023-04-01T01:11:27.819Z,0
2023-04-01T01:13:07.754Z,0
2023-04-01T01:14:47.508Z,0
2023-04-01T01:16:27.127Z,0
2023-04-01T01:18:07.034Z,0
2023-04-01T01:19:46.857Z,0
2023-04-01T01:21:26.537Z,0
2023-04-01T01:23:06.427Z,0
2023-04-01T01:24:45.964Z,0
2023-04-01T01:26:25.869Z,0
2023-04-01T01:28:05.501Z,0
2023-04-01T01:29:45.439Z,0
2023-04-01T01:31:25.168Z,0
2023-04-01T01:33:04.879Z,0
2023-04-01T01:34:44.692Z,0
2023-04-01T01:36:24.509Z,0
2023-04-01T01:38:04.096Z,0
2023-04-01T01:39:43.883Z,0
2023-04-01T01:41:23.632Z,0
2023-04-01T01:43:03.568Z,0
2023-04-01T01:44:43.298Z,0
2023-04-01T01:46:23.004Z,0
2023-04-01T01:48:02.710Z,0
2023-04-01T01:49:42.455Z,0
2023-04-01T01:51:22.378Z,0
2023-04-01T01:53:02.015Z,0
2023-04-01T01:54:41.885Z,0
2023-04-01T01:56:21.704Z,0
2023-04-01T01:58:01.459Z,0
2023-04-01T01:59:41.265Z,0
2023-04-01T02:01:20.901Z,0
2023-04-01T02:03:00.844Z,0
2023-04-01T02:04:40.536Z,0
2023-04-01T02:06:20.142Z,0
2023-04-01T02:07:59.960Z,0
2023-04-01T02:09:39.869Z,0
2023-04-01T02:11:19.623Z,0
2023-04-01T02:12:59.365Z,0
2023-04-01T02:14:39.125Z,0
2023-04-01T02:16:18.779Z,0
2023-04-01T02:17:58.705Z,0
2023-04-01T02:19:38.393Z,0
2023-04-01T02:21:18.112Z,0
2023-04-01T02:22:58.000Z,0
2023-04-01T02:24:37.792Z,0
2023-04-01T02:26:17.347Z,0
2023-04-01T02:27:57.307Z,0
2023-04-01T02:29:36.965Z,0
2023-04-01T02:31:16.836Z,0
2023-04-01T02:32:56.558Z,0
2023-04-01T02:34:36.317Z,0
2023-04-01T02:36:16.145Z,0
2023-04-01T02:37:55.855Z,0
2023-04-01T02:39:35.650Z,0
2023-04-01T02:41:15.322Z,0
2023-04-01T02:42:55.162Z,0
2023-04-01T02:44:34.788Z,0
2023-04-01T02:46:14.733Z,0
2023-04-01T02:47:54.332Z,0
2023-04-01T02:49:34.158Z,0
2023-04-01T02:51:13.862Z,0
2023-04-01T02:52:53.789Z,0
2023-04-01T02:54:33.532Z,0
2023-04-01T02:56:13.145Z,0
2023-04-01T02:57:53.100Z,0
2023-04-01T02:59:32.811Z,0
2023-04-01T03:01:12.589Z,0
2023-04-01T03:02:52.298Z,0
2023-04-01T03:04:32.076Z,0
2023-04-01T03:06:11.828Z,0
2023-04-01T03:07:51.760Z,0
2023-04-01T03:09:31.319Z,0
2023-04-01T03:11:11.103Z,0
2023-04-01T03:12:50.994Z,0
2023-04-01T03:14:30.752Z,0
2023-04-01T03:16:10.531Z,0
2023-04-01T03:17:50.135Z,0
2023-04-01T03:19:30.120Z,0
2023-04-01T03:21:09.702Z,0
2023-04-01T03:22:49.516Z,0
2023-04-01T03:24:29.316Z,0
2023-04-01T03:26:09.080Z,0
2023-04-01T03:27:48.763Z,0
2023-04-01T03:29:28.674Z,0
2023-04-01T03:31:08.417Z,0
2023-04-01T03:32:48.237Z,0
2023-04-01T03:34:27.961Z,0
2023-04-01T03:36:07.754Z,0
2023-04-01T03:37:47.370Z,0
2023-04-01T03:39:27.250Z,0
2023-04-01T03:41:06.984Z,0
2023-04-01T03:42:46.736Z,0
2023-04-01T03:44:26.551Z,0
2023-04-01T03:46:06.359Z,0
2023-04-01T03:47:46.080Z,0
2023-04-01T03:49:25.869Z,0
2023-04-01T03:51:05.641Z,0
2023-04-01T03:52:45.423Z,0
2023-04-01T03:54:25.040Z,0
2023-04-01T03:56:04.973Z,0
2023-04-01T03:57:44.714Z,0
2023-04-01T03:59:24.413Z,0
2023-04-01T04:01:04.211Z,0
2023-04-01T04:02:43.998Z,0
2023-04-01T04:04:23.737Z,0
2023-04-01T04:06:03.454Z,0
2023-04-01T04:07:43.307Z,0
2023-04-01T04:09:23.091Z,0
2023-04-01T04:11:02.826Z,0
2023-04-01T04:12:42.607Z,0
2023-04-01T04:14:22.342Z,0
2023-04-01T04:16:01.986Z,0
2023-04-01T04:17:41.809Z,0
2023-04-01T04:19:21.654Z,0
2023-04-01T04:21:01.292Z,0
2023-04-01T04:22:41.192Z,0
2023-04-01T04:24:20.822Z,0
2023-04-01T04:26:00.594Z,0
2023-04-01T04:27:40.526Z,0
2023-04-01T04:29:20.195Z,0
2023-04-01T04:31:00.033Z,0
2023-04-01T04:32:39.748Z,0
2023-04-01T04:34:19.559Z,0
2023-04-01T04:35:59.291Z,0
2023-04-01T04:37:39.008Z,0
2023-04-01T04:39:18.877Z,0
2023-04-01T04:40:58.665Z,0
2023-04-01T04:42:38.418Z,0
2023-04-01T04:44:18.191Z,0
2023-04-01T04:45:57.787Z,0
2023-04-01T04:47:37.566Z,0
2023-04-01T04:49:17.478Z,0
2023-04-01T04:50:57.127Z,0
2023-04-01T04:52:37.029Z,0
2023-04-01T04:54:16.783Z,0
2023-04-01T04:55:56.376Z,0
2023-04-01T04:57:36.157Z,0
2023-04-01T04:59:15.935Z,0
2023-04-01T05:00:55.667Z,0
2023-04-01T05:02:35.455Z,0
2023-04-01T05:04:15.256Z,0
2023-04-01T05:05:55.140Z,0
2023-04-01T05:07:34.817Z,0.51
2023-04-01T05:09:14.518Z,0.77
2023-04-01T05:10:54.393Z,0.25
2023-04-01T05:12:34.115Z,0.77
2023-04-01T05:14:13.830Z,1.02
2023-04-01T05:15:53.585Z,1.28
2023-04-01T05:17:33.387Z,1.28
2023-04-01T05:19:13.139Z,0.51
2023-04-01T05:20:52.926Z,0.77
2023-04-01T05:22:32.833Z,2.06
2023-04-01T05:24:12.426Z,1.8
2023-04-01T05:25:52.317Z,2.32
2023-04-01T05:27:31.962Z,1.29
2023-04-01T05:29:11.728Z,1.8
2023-04-01T05:30:51.598Z,1.29
2023-04-01T05:32:31.298Z,2.84
2023-04-01T05:34:11.065Z,2.06
2023-04-01T05:35:50.840Z,2.84
2023-04-01T05:37:30.610Z,2.84
2023-04-01T05:39:10.407Z,3.1
2023-04-01T05:40:50.151Z,3.36
2023-04-01T05:42:29.964Z,3.36
2023-04-01T05:44:09.721Z,3.62
2023-04-01T05:45:49.422Z,5.7
2023-04-01T05:47:29.262Z,6.49
2023-04-01T05:49:08.978Z,7.8
2023-04-01T05:50:48.808Z,9.38
2023-04-01T05:52:28.502Z,10.71
2023-04-01T05:54:08.275Z,11.26
2023-04-01T05:55:48.139Z,11.01
2023-04-01T05:57:27.843Z,10.22
2023-04-01T05:59:07.669Z,8.66
2023-04-01T06:00:47.401Z,8.14
2023-04-01T06:02:27.142Z,7.09
2023-04-01T06:04:06.916Z,6.83
2023-04-01T06:05:46.744Z,6.3
2023-04-01T06:07:26.496Z,5.78
2023-04-01T06:09:06.207Z,6.31
2023-04-01T06:10:46.088Z,6.84
2023-04-01T06:12:25.756Z,6.84
2023-04-01T06:14:05.576Z,7.91
2023-04-01T06:15:45.374Z,8.18
2023-04-01T06:17:25.064Z,7.92
2023-04-01T06:19:04.997Z,7.93
2023-04-01T06:20:44.652Z,7.93
2023-04-01T06:22:24.527Z,7.94
2023-04-01T06:24:04.249Z,7.95
2023-04-01T06:25:44.099Z,7.95
2023-04-01T06:27:23.680Z,7.42
2023-04-01T06:29:03.449Z,7.96
2023-04-01T06:30:43.385Z,8.5
2023-04-01T06:32:23.121Z,21.65
2023-04-01T06:34:02.881Z,15.52
2023-04-01T06:35:42.618Z,11.76
2023-04-01T06:37:22.304Z,12.85
2023-04-01T06:39:02.325Z,13.06
2023-04-01T06:40:42.092Z,12.89
2023-04-01T06:42:21.691Z,13.17
2023-04-01T06:44:01.577Z,14.01
2023-04-01T06:45:41.321Z,14.31
2023-04-01T06:47:21.012Z,15.14
2023-04-01T06:49:00.856Z,14.9
2023-04-01T06:50:40.622Z,13.82
2023-04-01T06:52:20.332Z,12.75
2023-04-01T06:54:00.172Z,12.21
2023-04-01T06:55:39.925Z,12.5
2023-04-01T06:57:19.570Z,13.87
2023-04-01T06:58:59.491Z,14.44
2023-04-01T07:00:39.247Z,15.83
2023-04-01T07:02:18.990Z,16.14
2023-04-01T07:03:58.832Z,15.32
2023-04-01T07:05:38.545Z,13.97
2023-04-01T07:07:18.352Z,13.43
2023-04-01T07:08:58.046Z,14.82
2023-04-01T07:10:37.817Z,15.11
2023-04-01T07:12:17.541Z,14.02
2023-04-01T07:13:57.398Z,13.2
2023-04-01T07:15:37.247Z,11.81
2023-04-01T07:17:16.972Z,13.19
2023-04-01T07:18:56.734Z,14.04
2023-04-01T07:20:36.608Z,16
2023-04-01T07:22:16.247Z,15.45
2023-04-01T07:23:55.864Z,13.51
2023-04-01T07:25:35.720Z,13.23
2023-04-01T07:27:15.587Z,14.08
2023-04-01T07:28:55.348Z,16.03
2023-04-01T07:30:34.991Z,17.12
2023-04-01T07:32:14.728Z,17.2
2023-04-01T07:33:54.679Z,36
2023-04-01T07:35:34.448Z,16.99
2023-04-01T07:37:14.214Z,16.99
2023-04-01T07:38:53.868Z,17.56
2023-04-01T07:40:33.731Z,18.99
2023-04-01T07:42:13.499Z,20.71
2023-04-01T07:43:53.115Z,23.29
2023-04-01T07:45:33.073Z,23.06
2023-04-01T07:47:12.705Z,22.8
2023-04-01T07:48:52.605Z,23.13
2023-04-01T07:50:32.371Z,25.44
2023-04-01T07:52:12.138Z,26.7
2023-04-01T07:53:51.914Z,27.34
2023-04-01T07:55:31.707Z,30.03
2023-04-01T07:57:11.366Z,31.62
2023-04-01T07:58:51.193Z,33.54
2023-04-01T08:00:30.995Z,35.97
2023-04-01T08:02:10.748Z,26.51
2023-04-01T08:03:50.520Z,34.66
2023-04-01T08:05:30.258Z,34.91
2023-04-01T08:07:09.941Z,34.63
2023-04-01T08:08:49.903Z,33.16
2023-04-01T08:10:29.639Z,34.33
2023-04-01T08:12:09.215Z,34.33
2023-04-01T08:13:49.188Z,33.16
2023-04-01T08:15:28.755Z,34.62
2023-04-01T08:17:08.670Z,35.5
2023-04-01T08:18:48.439Z,36.07
2023-04-01T08:20:28.242Z,34.91
2023-04-01T08:22:07.992Z,34.58
2023-04-01T08:23:47.775Z,35.8
2023-04-01T08:25:27.557Z,34.04
2023-04-01T08:27:07.318Z,34.62
2023-04-01T08:28:47.052Z,34.63
2023-04-01T08:30:26.887Z,36.09
2023-04-01T08:32:06.557Z,35.22
2023-04-01T08:33:46.338Z,35.5
2023-04-01T08:35:26.077Z,35.5
2023-04-01T08:37:05.910Z,34.62
2023-04-01T08:38:45.741Z,34.32
2023-04-01T08:40:25.358Z,34.89
2023-04-01T08:42:05.333Z,34.9
2023-04-01T08:43:45.023Z,36.06
2023-04-01T08:45:24.731Z,35.48
2023-04-01T08:47:04.558Z,35.18
2023-04-01T08:48:44.352Z,34.71
2023-04-01T08:50:24.065Z,34.62
2023-04-01T08:52:03.789Z,34.59
2023-04-01T08:53:43.640Z,35.48
2023-04-01T08:55:23.389Z,35.18
2023-04-01T08:57:03.019Z,34.03
2023-04-01T08:58:42.822Z,34.02
2023-04-01T09:00:22.555Z,36.34
2023-04-01T09:02:02.476Z,35.48
2023-04-01T09:03:42.218Z,35.47
2023-04-01T09:05:21.864Z,34.59
2023-04-01T09:07:01.821Z,34.58
2023-04-01T09:08:41.577Z,34.58
2023-04-01T09:10:21.348Z,35.78
2023-04-01T09:12:01.153Z,36.34
2023-04-01T09:13:40.813Z,35.16
2023-04-01T09:15:20.584Z,38.12
2023-04-01T09:17:00.373Z,34.9
2023-04-01T09:18:40.113Z,35.48
2023-04-01T09:20:19.950Z,34
2023-04-01T09:21:59.714Z,34.89
2023-04-01T09:23:39.536Z,34.9
2023-04-01T09:25:19.105Z,34.89
2023-04-01T09:26:58.885Z,35.48
2023-04-01T09:28:38.753Z,34
2023-04-01T09:30:18.598Z,34.3
2023-04-01T09:31:58.405Z,33.99
2023-04-01T09:33:38.120Z,34.3
2023-04-01T09:35:17.722Z,35.18
2023-04-01T09:36:57.670Z,34.58
2023-04-01T09:38:37.430Z,34.29
2023-04-01T09:40:17.248Z,35.14
2023-04-01T09:41:56.992Z,34.59
2023-04-01T09:43:36.761Z,34.59
2023-04-01T09:45:16.462Z,34.89
2023-04-01T09:46:56.281Z,34.9
2023-04-01T09:48:36.061Z,33.99
2023-04-01T09:50:15.814Z,34.58
2023-04-01T09:51:55.469Z,34
2023-04-01T09:53:35.242Z,34.3
2023-04-01T09:55:15.147Z,34.87
2023-04-01T09:56:54.932Z,34.58
2023-04-01T09:58:34.686Z,34.58
2023-04-01T10:00:14.466Z,33.68
2023-04-01T10:01:54.207Z,34
2023-04-01T10:03:34.007Z,34.29
2023-04-01T10:05:13.758Z,34.28
2023-04-01T10:06:53.512Z,33.48
2023-04-01T10:08:33.324Z,33.71
2023-04-01T10:10:13.024Z,33.41
2023-04-01T10:11:52.862Z,32.83
2023-04-01T10:13:32.644Z,34.87
2023-04-01T10:15:12.227Z,34
2023-04-01T10:16:51.992Z,33.7
2023-04-01T10:18:31.878Z,33.7
2023-04-01T10:20:11.536Z,33.7
2023-04-01T10:21:51.467Z,33.13
2023-04-01T10:23:31.203Z,33.12
2023-04-01T10:25:11.021Z,34.02
2023-04-01T10:26:50.689Z,33.99
2023-04-01T10:28:30.430Z,33.68
2023-04-01T10:30:10.311Z,34.87
2023-04-01T10:31:50.050Z,33.68
2023-04-01T10:33:29.790Z,33.99
2023-04-01T10:35:09.651Z,34
2023-04-01T10:36:49.422Z,34.59
2023-04-01T10:38:28.999Z,34.59
2023-04-01T10:40:08.994Z,34.3
2023-04-01T10:41:48.752Z,34.59
2023-04-01T10:43:28.471Z,33.72
2023-04-01T10:45:08.182Z,33.99
2023-04-01T10:46:47.994Z,33.41
2023-04-01T10:48:27.815Z,34.59
2023-04-01T10:50:07.593Z,33.41
2023-04-01T10:51:47.193Z,32.82
2023-04-01T10:53:27.072Z,34.87
2023-04-01T10:55:06.852Z,33.7
2023-04-01T10:56:46.609Z,33.68
2023-04-01T10:58:26.229Z,33.66
2023-04-01T11:00:06.010Z,33.71
2023-04-01T11:01:45.956Z,0
2023-04-01T11:03:25.722Z,0
2023-04-01T11:05:05.312Z,0
2023-04-01T11:06:45.268Z,0
2023-04-01T11:08:25.010Z,0
2023-04-01T11:10:04.734Z,0
2023-04-01T11:11:44.509Z,0
2023-04-01T11:13:24.341Z,3.57
2023-04-01T11:15:03.974Z,5.77
2023-04-01T11:16:43.858Z,7.43
2023-04-01T11:18:23.493Z,6.88
2023-04-01T11:20:03.252Z,6.88
2023-04-01T11:21:43.073Z,7.15
2023-04-01T11:23:22.788Z,7.7
2023-04-01T11:25:02.633Z,12.1
2023-04-01T11:26:42.320Z,8.25
2023-04-01T11:28:22.105Z,8.53
2023-04-01T11:30:01.877Z,8.25
2023-04-01T11:31:41.741Z,8.8
2023-04-01T11:33:21.468Z,8.25
2023-04-01T11:35:01.200Z,7.98
2023-04-01T11:36:41.101Z,8.53
2023-04-01T11:38:20.723Z,9.08
2023-04-01T11:40:00.486Z,8.53
2023-04-01T11:41:40.300Z,8.53
2023-04-01T11:43:20.013Z,8.53
2023-04-01T11:44:59.849Z,8.8
2023-04-01T11:46:39.567Z,8.53
2023-04-01T11:48:19.338Z,8.25
2023-04-01T11:49:59.129Z,8.52
2023-04-01T11:51:38.874Z,8.53
2023-04-01T11:53:18.663Z,9.35
2023-04-01T11:54:58.430Z,8.53
2023-04-01T11:56:38.202Z,8.8
2023-04-01T11:58:17.975Z,8.53
2023-04-01T11:59:57.735Z,8.8
2023-04-01T12:01:37.500Z,8.53
2023-04-01T12:03:17.399Z,8.8
2023-04-01T12:04:57.099Z,8.8
2023-04-01T12:06:36.814Z,7.98
2023-04-01T12:08:16.595Z,9.08
2023-04-01T12:09:56.358Z,8.8
2023-04-01T12:11:36.187Z,9.08
2023-04-01T12:13:15.902Z,9.08
2023-04-01T12:14:55.667Z,9.08
2023-04-01T12:16:35.452Z,9.02
2023-04-01T12:18:15.216Z,8.8
2023-04-01T12:19:54.977Z,9.08
2023-04-01T12:21:34.749Z,8.53
2023-04-01T12:23:14.515Z,8.8
2023-04-01T12:24:54.317Z,8.52
2023-04-01T12:26:34.059Z,8.25
2023-04-01T12:28:13.831Z,8.53
2023-04-01T12:29:53.597Z,8.53
2023-04-01T12:31:33.380Z,9.08
2023-04-01T12:33:13.156Z,9.35
2023-04-01T12:34:52.930Z,8.8
2023-04-01T12:36:32.703Z,9.35
2023-04-01T12:38:12.456Z,8.8
2023-04-01T12:39:52.228Z,9.35
2023-04-01T12:41:31.990Z,9.08
2023-04-01T12:43:11.766Z,8.8
2023-04-01T12:44:51.534Z,9.08
2023-04-01T12:46:31.310Z,8.53
2023-04-01T12:48:11.084Z,8.81
2023-04-01T12:49:50.860Z,8.53
2023-04-01T12:51:30.652Z,9.91
2023-04-01T12:53:10.388Z,8.81
2023-04-01T12:54:50.168Z,8.8
2023-04-01T12:56:29.916Z,9.63
2023-04-01T12:58:09.697Z,9.08
2023-04-01T12:59:49.475Z,9.08
2023-04-01T13:01:29.237Z,8.81
2023-04-01T13:03:09.021Z,8.53
2023-04-01T13:04:48.791Z,9.35
2023-04-01T13:06:28.560Z,8.53
2023-04-01T13:08:08.329Z,8.25
2023-04-01T13:09:48.097Z,8.53
2023-04-01T13:11:27.878Z,9.08
2023-04-01T13:13:07.636Z,9.91
2023-04-01T13:14:47.408Z,8.8
2023-04-01T13:16:27.184Z,9.08
2023-04-01T13:18:06.960Z,9.09
2023-04-01T13:19:46.712Z,8.53
2023-04-01T13:21:26.500Z,9.63
2023-04-01T13:23:06.273Z,9.08
2023-04-01T13:24:46.027Z,8.53
2023-04-01T13:26:25.798Z,8.25
2023-04-01T13:28:05.570Z,8.81
2023-04-01T13:29:45.372Z,9.35
2023-04-01T13:31:25.108Z,8.53
2023-04-01T13:33:04.878Z,9.63
2023-04-01T13:34:44.636Z,9.3
2023-04-01T13:36:24.444Z,8.81
2023-04-01T13:38:04.175Z,8.81
2023-04-01T13:39:44.002Z,9.08
2023-04-01T13:41:23.771Z,8.53
2023-04-01T13:43:03.506Z,9.09
2023-04-01T13:44:43.269Z,8.54
2023-04-01T13:46:23.042Z,9.91
2023-04-01T13:48:02.802Z,9.35
2023-04-01T13:49:42.574Z,8.26
2023-04-01T13:51:22.352Z,8.54
2023-04-01T13:53:02.185Z,8.53
2023-04-01T13:54:41.892Z,8.26
2023-04-01T13:56:21.669Z,8.26
2023-04-01T13:58:01.431Z,8.54
2023-04-01T13:59:41.192Z,8.53
2023-04-01T14:01:20.977Z,8.26
2023-04-01T14:03:00.767Z,8.54
2023-04-01T14:04:40.514Z,8.53
2023-04-01T14:06:20.289Z,8.54
2023-04-01T14:08:00.052Z,8.81
2023-04-01T14:09:39.824Z,9.63
2023-04-01T14:11:19.601Z,8.26
2023-04-01T14:12:59.379Z,8.26
2023-04-01T14:14:39.161Z,8.81
2023-04-01T14:16:18.902Z,8.81
2023-04-01T14:17:58.689Z,8.54
2023-04-01T14:19:38.449Z,9.64
2023-04-01T14:21:18.258Z,8.27
2023-04-01T14:22:57.980Z,8.54
2023-04-01T14:24:37.754Z,9.64
2023-04-01T14:26:17.531Z,7.97
2023-04-01T14:27:57.333Z,8.81
2023-04-01T14:29:37.062Z,8.81
2023-04-01T14:31:16.877Z,7.99
2023-04-01T14:32:56.603Z,8.81
2023-04-01T14:34:36.382Z,7.99
2023-04-01T14:36:16.146Z,8.81
2023-04-01T14:37:55.927Z,9.64
2023-04-01T14:39:35.688Z,8.81
2023-04-01T14:41:15.455Z,8.26
2023-04-01T14:42:55.314Z,7.71
2023-04-01T14:44:35.001Z,9.09
2023-04-01T14:46:14.764Z,9.35
2023-04-01T14:47:54.537Z,8.26
2023-04-01T14:49:34.320Z,8.26
2023-04-01T14:51:14.164Z,9.09
2023-04-01T14:52:53.861Z,9.31
2023-04-01T14:54:33.642Z,9.37
2023-04-01T14:56:13.389Z,8.54
2023-04-01T14:57:53.157Z,9.09
2023-04-01T14:59:32.925Z,8.54
2023-04-01T15:01:12.701Z,9.09
2023-04-01T15:02:52.467Z,8.54
2023-04-01T15:04:32.238Z,8.81
2023-04-01T15:06:12.024Z,7.99
2023-04-01T15:07:51.791Z,7.99
2023-04-01T15:09:31.563Z,9.09
2023-04-01T15:11:11.329Z,9.37
2023-04-01T15:12:51.107Z,8.82
2023-04-01T15:14:30.865Z,9.09
2023-04-01T15:16:10.692Z,8.82
2023-04-01T15:17:50.402Z,9.37
2023-04-01T15:19:30.176Z,8.54
2023-04-01T15:21:09.982Z,9.1
2023-04-01T15:22:49.713Z,8.54
2023-04-01T15:24:29.522Z,9.09
2023-04-01T15:26:09.255Z,9.1
2023-04-01T15:27:49.050Z,9.09
2023-04-01T15:29:28.823Z,9.37
2023-04-01T15:31:08.583Z,8.54
2023-04-01T15:32:48.349Z,7.72
2023-04-01T15:34:28.113Z,9.1
2023-04-01T15:36:07.918Z,8.55
2023-04-01T15:37:47.659Z,8.82
2023-04-01T15:39:27.428Z,9.64
2023-04-01T15:41:07.194Z,9.1
2023-04-01T15:42:46.961Z,8.82
2023-04-01T15:44:26.752Z,8.54
2023-04-01T15:46:06.671Z,8.83
2023-04-01T15:47:46.476Z,7.72
2023-04-01T15:49:26.268Z,9.93
2023-04-01T15:51:05.953Z,9.1
2023-04-01T15:52:45.622Z,9.64
2023-04-01T15:54:25.387Z,8.55
2023-04-01T15:56:05.305Z,8.82
2023-04-01T15:57:45.074Z,9.1
2023-04-01T15:59:24.829Z,9.64
2023-04-01T16:01:04.500Z,9.1
2023-04-01T16:02:44.294Z,7.72
2023-04-01T16:04:24.054Z,9.1
2023-04-01T16:06:03.958Z,9.66
2023-04-01T16:07:43.665Z,8.27
2023-04-01T16:09:23.429Z,9.64
2023-04-01T16:11:03.226Z,11.85
2023-04-01T16:12:43.060Z,8.27
2023-04-01T16:14:22.790Z,8
2023-04-01T16:16:02.357Z,8.83
2023-04-01T16:17:42.154Z,8.28
2023-04-01T16:19:21.902Z,8.55
2023-04-01T16:21:01.827Z,8.55
2023-04-01T16:22:41.706Z,8.55
2023-04-01T16:24:21.435Z,8.83
2023-04-01T16:26:01.165Z,8.27
2023-04-01T16:27:40.966Z,8.83
2023-04-01T16:29:20.513Z,9.38
2023-04-01T16:31:00.499Z,8.83
2023-04-01T16:32:40.218Z,8.55
2023-04-01T16:34:20.009Z,8.27
2023-04-01T16:35:59.819Z,7.72
2023-04-01T16:37:39.540Z,9.1
2023-04-01T16:39:19.160Z,8.83
2023-04-01T16:40:59.083Z,9.38
2023-04-01T16:42:38.848Z,7.72
2023-04-01T16:44:18.648Z,7.99
2023-04-01T16:45:58.402Z,4.94
2023-04-01T16:47:38.193Z,5.21
2023-04-01T16:49:17.936Z,3.28
2023-04-01T16:50:57.718Z,4.1
2023-04-01T16:52:37.420Z,3.27
2023-04-01T16:54:17.279Z,2.45
2023-04-01T16:55:57.073Z,1.9
2023-04-01T16:57:36.609Z,1.63
2023-04-01T16:59:16.384Z,1.9
2023-04-01T17:00:56.300Z,2.44
2023-04-01T17:02:36.110Z,2.69
2023-04-01T17:04:15.817Z,1.35
2023-04-01T17:05:55.652Z,1.35
2023-04-01T17:07:35.418Z,1.08
2023-04-01T17:09:15.209Z,0
2023-04-01T17:10:55.007Z,1.62
2023-04-01T17:12:34.752Z,1.61
2023-04-01T17:14:14.502Z,0.52
2023-04-01T17:15:54.081Z,0
2023-04-01T17:17:33.989Z,0
2023-04-01T17:19:13.823Z,0
2023-04-01T17:20:53.564Z,0
2023-04-01T17:22:33.285Z,0
2023-04-01T17:24:13.099Z,0
2023-04-01T17:25:52.887Z,0
2023-04-01T17:27:32.547Z,0
2023-04-01T17:29:12.229Z,0
2023-04-01T17:30:52.169Z,0
2023-04-01T17:32:31.929Z,0
2023-04-01T17:34:11.653Z,0
2023-04-01T17:35:51.307Z,0
2023-04-01T17:37:31.063Z,0
2023-04-01T17:39:10.911Z,0
2023-04-01T17:40:50.746Z,0
2023-04-01T17:42:30.603Z,0
2023-04-01T17:44:10.295Z,0
2023-04-01T17:45:49.913Z,0
2023-04-01T17:47:29.668Z,0
2023-04-01T17:49:09.443Z,0
2023-04-01T17:50:49.358Z,0
2023-04-01T17:52:29.177Z,0
2023-04-01T17:54:08.732Z,0
2023-04-01T17:55:48.733Z,0
2023-04-01T17:57:28.426Z,0
2023-04-01T17:59:08.033Z,0
2023-04-01T18:00:47.941Z,0
2023-04-01T18:02:27.806Z,0
2023-04-01T18:04:07.498Z,0
2023-04-01T18:05:47.171Z,0
2023-04-01T18:07:27.150Z,0
2023-04-01T18:09:06.829Z,0
2023-04-01T18:10:46.468Z,0
2023-04-01T18:12:26.352Z,0
2023-04-01T18:14:06.127Z,0
2023-04-01T18:15:45.723Z,0
2023-04-01T18:17:25.542Z,0
2023-04-01T18:19:05.370Z,0
2023-04-01T18:20:45.014Z,0
2023-04-01T18:22:24.942Z,0
2023-04-01T18:24:04.767Z,0
2023-04-01T18:25:44.478Z,0
2023-04-01T18:27:24.088Z,0
2023-04-01T18:29:03.997Z,0
2023-04-01T18:30:43.620Z,0
2023-04-01T18:32:23.550Z,0
2023-04-01T18:34:03.272Z,0
2023-04-01T18:35:43.086Z,0
2023-04-01T18:37:22.767Z,0
2023-04-01T18:39:02.674Z,0
2023-04-01T18:40:42.346Z,0
2023-04-01T18:42:22.160Z,0
2023-04-01T18:44:01.921Z,0
2023-04-01T18:45:41.719Z,0
2023-04-01T18:47:21.461Z,0
2023-04-01T18:49:01.219Z,0
2023-04-01T18:50:40.812Z,0
2023-04-01T18:52:20.702Z,0
2023-04-01T18:54:00.537Z,0
2023-04-01T18:55:40.294Z,0
2023-04-01T18:57:20.057Z,0
2023-04-01T18:58:59.666Z,0
2023-04-01T19:00:39.431Z,0
2023-04-01T19:02:19.375Z,0
2023-04-01T19:03:58.959Z,0
2023-04-01T19:05:38.907Z,0
2023-04-01T19:07:18.653Z,0
2023-04-01T19:08:58.392Z,0
2023-04-01T19:10:38.023Z,0
2023-04-01T19:12:17.986Z,0
2023-04-01T19:13:57.767Z,0
2023-04-01T19:15:37.372Z,0
2023-04-01T19:17:17.261Z,0
2023-04-01T19:18:57.040Z,0
2023-04-01T19:20:36.630Z,0
2023-04-01T19:22:16.456Z,0
2023-04-01T19:23:56.303Z,0
2023-04-01T19:25:36.109Z,0
2023-04-01T19:27:15.856Z,0
2023-04-01T19:28:55.689Z,0
2023-04-01T19:30:35.379Z,0
2023-04-01T19:32:15.233Z,0
2023-04-01T19:33:54.974Z,0
2023-04-01T19:35:34.685Z,0
2023-04-01T19:37:14.476Z,0
2023-04-01T19:38:54.067Z,0
2023-04-01T19:40:33.837Z,0
2023-04-01T19:42:13.691Z,0
2023-04-01T19:43:53.435Z,0
2023-04-01T19:45:33.265Z,0
2023-04-01T19:47:13.085Z,0
2023-04-01T19:48:52.849Z,0
2023-04-01T19:50:32.591Z,0
2023-04-01T19:52:12.397Z,0
2023-04-01T19:53:52.162Z,0
2023-04-01T19:55:31.732Z,0
2023-04-01T19:57:11.527Z,0
2023-04-01T19:58:51.444Z,0
2023-04-01T20:00:31.050Z,0
2023-04-01T20:02:10.987Z,0
2023-04-01T20:03:50.784Z,0
2023-04-01T20:05:30.358Z,0
2023-04-01T20:07:10.290Z,0
2023-04-01T20:08:50.093Z,0
2023-04-01T20:10:29.788Z,0
2023-04-01T20:12:09.468Z,0
2023-04-01T20:13:49.398Z,0
2023-04-01T20:15:29.156Z,0
2023-04-01T20:17:08.792Z,0
2023-04-01T20:18:48.632Z,0
2023-04-01T20:20:28.343Z,0
2023-04-01T20:22:08.012Z,0
2023-04-01T20:23:47.899Z,0
2023-04-01T20:25:27.649Z,0
2023-04-01T20:27:07.367Z,0
2023-04-01T20:28:47.101Z,0
2023-04-01T20:30:26.876Z,0
2023-04-01T20:32:06.741Z,0
2023-04-01T20:33:46.411Z,0
2023-04-01T20:35:26.149Z,0
2023-04-01T20:37:06.037Z,0
2023-04-01T20:38:45.701Z,0
2023-04-01T20:40:25.596Z,0
2023-04-01T20:42:05.332Z,0
2023-04-01T20:43:44.988Z,0
2023-04-01T20:45:24.914Z,0
2023-04-01T20:47:04.706Z,0
2023-04-01T20:48:44.453Z,0
2023-04-01T20:50:24.230Z,0
2023-04-01T20:52:04.024Z,0
2023-04-01T20:53:43.719Z,0
2023-04-01T20:55:23.542Z,0
2023-04-01T20:57:03.190Z,0
2023-04-01T20:58:43.171Z,0
2023-04-01T21:00:22.797Z,0
2023-04-01T21:02:02.635Z,0
2023-04-01T21:03:42.401Z,0
2023-04-01T21:05:21.973Z,0
2023-04-01T21:07:01.788Z,0
2023-04-01T21:08:41.614Z,0
2023-04-01T21:10:21.456Z,0
2023-04-01T21:12:01.110Z,0
2023-04-01T21:13:40.824Z,0
2023-04-01T21:15:20.779Z,0
2023-04-01T21:17:00.357Z,0
2023-04-01T21:18:40.223Z,0
2023-04-01T21:20:19.994Z,0
2023-04-01T21:21:59.661Z,0
2023-04-01T21:23:39.410Z,0
2023-04-01T21:25:19.357Z,0
2023-04-01T21:26:59.031Z,0
2023-04-01T21:28:38.891Z,0
2023-04-01T21:30:18.656Z,0
2023-04-01T21:31:58.394Z,0
2023-04-01T21:33:38.023Z,0
2023-04-01T21:35:17.829Z,0
2023-04-01T21:36:57.555Z,0
2023-04-01T21:38:37.496Z,0
2023-04-01T21:40:17.077Z,0
2023-04-01T21:41:57.009Z,0
2023-04-01T21:43:36.615Z,0
2023-04-01T21:45:16.382Z,0
2023-04-01T21:46:56.253Z,0
2023-04-01T21:48:36.160Z,0
2023-04-01T21:50:15.761Z,0
2023-04-01T21:51:55.462Z,0
2023-04-01T21:53:35.377Z,0
2023-04-01T21:55:15.135Z,0
2023-04-01T21:56:54.886Z,0
2023-04-01T21:58:34.545Z,0
2023-04-01T22:00:14.293Z,0
2023-04-01T22:01:54.166Z,0
2023-04-01T22:03:34.004Z,0
2023-04-01T22:05:13.691Z,0
2023-04-01T22:06:53.507Z,0
2023-04-01T22:08:33.337Z,0
2023-04-01T22:10:12.900Z,0
2023-04-01T22:11:52.651Z,0
2023-04-01T22:13:32.577Z,0
2023-04-01T22:15:12.220Z,0
2023-04-01T22:16:52.131Z,0
2023-04-01T22:18:31.858Z,0
2023-04-01T22:20:11.576Z,0
2023-04-01T22:21:51.318Z,0
2023-04-01T22:23:31.124Z,0
2023-04-01T22:25:10.790Z,0
2023-04-01T22:26:50.687Z,0
2023-04-01T22:28:30.420Z,0
2023-04-01T22:30:10.106Z,0
2023-04-01T22:31:50.062Z,0
2023-04-01T22:33:29.629Z,0
2023-04-01T22:35:09.618Z,0
2023-04-01T22:36:49.343Z,0
2023-04-01T22:38:29.009Z,0
2023-04-01T22:40:08.706Z,0
2023-04-01T22:41:48.636Z,0
2023-04-01T22:43:28.332Z,0
2023-04-01T22:45:08.166Z,0
2023-04-01T22:46:47.792Z,0
2023-04-01T22:48:27.630Z,0
2023-04-01T22:50:07.300Z,0
2023-04-01T22:51:47.227Z,0
2023-04-01T22:53:26.955Z,0
2023-04-01T22:55:06.716Z,0
2023-04-01T22:56:46.378Z,0
2023-04-01T22:58:26.325Z,0
2023-04-01T23:00:05.913Z,0
2023-04-01T23:01:45.786Z,0
2023-04-01T23:03:25.494Z,0
2023-04-01T23:05:05.338Z,0
2023-04-01T23:06:45.130Z,0
2023-04-01T23:08:24.761Z,0
2023-04-01T23:10:04.680Z,0
2023-04-01T23:11:44.424Z,0